Time;durP1;ratioP1;P1;durP2;ratioP2;P2;SDS_P1;SDS_P2;PMS_P1;PMS_P2;Temp;Humidity;BMP_temperature;BMP_pressure;BME280_temperature;BME280_humidity;BME280_pressure;Samples;Min_cycle;Max_cycle;Signal;HPM_P1;HPM_P2
2024/02/14 00:02:16;;;;;;;2.53;1.23;;;;;;;4.75;70.26;92938.06;5080233;28;20060;-78
2024/02/14 00:04:41;;;;;;;1.17;1.02;;;;;;;4.73;70.86;92942.69;5114916;28;20092;-78
2024/02/14 00:07:07;;;;;;;1.50;1.10;;;;;;;4.67;70.94;92935.06;5074561;28;20036;-78
2024/02/14 00:09:32;;;;;;;1.92;1.13;;;;;;;4.71;72.47;92938.75;5104734;28;20046;-79
2024/02/14 00:11:58;;;;;;;1.63;1.20;;;;;;;4.70;72.90;92942.38;5106522;28;20055;-78
2024/02/14 00:14:24;;;;;;;1.27;1.00;;;;;;;4.67;73.60;92935.84;5086420;28;20093;-78
2024/02/14 00:16:50;;;;;;;3.17;1.02;;;;;;;4.66;74.18;92942.06;5103925;28;20044;-78
2024/02/14 00:19:16;;;;;;;1.13;0.90;;;;;;;4.65;74.91;92939.72;5094019;28;20019;-78
2024/02/14 00:21:42;;;;;;;2.05;1.33;;;;;;;4.63;74.76;92942.53;5112062;28;20034;-78
2024/02/14 00:24:07;;;;;;;1.75;1.10;;;;;;;4.57;74.14;92939.09;5073120;28;20048;-78
2024/02/14 00:26:33;;;;;;;1.17;0.98;;;;;;;4.56;72.90;92934.13;5062576;28;20394;-78
2024/02/14 00:28:59;;;;;;;1.13;0.95;;;;;;;4.53;72.01;92938.00;5101761;28;20110;-78
2024/02/14 00:31:24;;;;;;;1.10;1.00;;;;;;;4.51;71.51;92942.63;5088346;28;20070;-77
2024/02/14 00:33:50;;;;;;;1.48;1.00;;;;;;;4.50;71.27;92941.06;5101884;28;20074;-77
2024/02/14 00:36:16;;;;;;;1.10;0.95;;;;;;;4.51;71.03;92947.81;5085641;28;20036;-78
2024/02/14 00:38:42;;;;;;;1.10;0.80;;;;;;;4.49;70.24;92941.31;5091269;28;20122;-77
2024/02/14 00:41:07;;;;;;;0.80;0.80;;;;;;;4.50;69.49;92948.84;5110062;28;20047;-77
2024/02/14 00:43:33;;;;;;;1.60;1.00;;;;;;;4.42;69.48;92935.50;5103790;28;20027;-78
2024/02/14 00:45:58;;;;;;;1.70;0.80;;;;;;;4.49;69.15;92949.06;5100557;28;20782;-77
2024/02/14 00:48:24;;;;;;;2.90;1.15;;;;;;;4.46;68.66;92947.75;5096068;28;20036;-77
2024/02/14 00:50:52;;;;;;;1.70;0.90;;;;;;;4.50;69.81;92948.03;5105679;28;20660;-77
2024/02/14 00:53:17;;;;;;;1.25;1.00;;;;;;;4.50;70.71;92956.63;5096314;28;20036;-78
2024/02/14 00:55:43;;;;;;;1.25;0.90;;;;;;;4.49;71.17;92959.44;5102522;28;20227;-78
2024/02/14 00:58:09;;;;;;;1.02;0.90;;;;;;;4.45;70.33;92960.94;5107782;28;20084;-79
2024/02/14 01:00:34;;;;;;;1.58;1.00;;;;;;;4.48;69.12;92963.03;5068815;28;20107;-77
2024/02/14 01:03:00;;;;;;;1.00;0.90;;;;;;;4.48;70.12;92966.44;5114566;28;20035;-79
2024/02/14 01:05:26;;;;;;;1.20;0.93;;;;;;;4.48;70.52;92970.81;5110915;28;20047;-78
2024/02/14 01:07:53;;;;;;;1.17;1.00;;;;;;;4.46;70.15;92957.31;5102566;28;20270;-79
2024/02/14 01:10:19;;;;;;;1.63;1.00;;;;;;;4.46;70.36;92968.50;5104046;28;20040;-79
2024/02/14 01:12:45;;;;;;;1.25;0.90;;;;;;;4.44;70.64;92974.94;5101815;28;20222;-79
2024/02/14 01:15:10;;;;;;;1.05;0.95;;;;;;;4.42;71.12;92971.78;5068917;28;20043;-79
2024/02/14 01:17:37;;;;;;;0.80;0.80;;;;;;;4.40;70.81;92972.00;5102254;28;20027;-77
2024/02/14 01:20:08;;;;;;;1.30;0.95;;;;;;;4.37;70.22;92970.69;5103316;28;20030;-80
2024/02/14 01:22:35;;;;;;;1.33;1.08;;;;;;;4.36;70.43;92974.28;5105784;28;20043;-79
2024/02/14 01:25:02;;;;;;;0.90;0.85;;;;;;;4.35;69.15;92980.50;5100712;28;20024;-79
2024/02/14 01:27:28;;;;;;;1.55;1.10;;;;;;;4.26;69.56;92968.94;5070450;28;20040;-78
2024/02/14 01:29:55;;;;;;;1.20;1.05;;;;;;;4.31;68.46;92982.00;5080207;28;20036;-78
2024/02/14 01:32:20;;;;;;;1.27;1.00;;;;;;;4.38;67.97;92987.78;5090249;28;20040;-77
2024/02/14 01:34:46;;;;;;;2.08;1.20;;;;;;;4.35;68.26;92977.91;5102172;28;20096;-77
2024/02/14 01:37:11;;;;;;;1.77;0.98;;;;;;;4.37;68.11;92981.06;5106763;28;20123;-79
2024/02/14 01:39:37;;;;;;;1.25;1.10;;;;;;;4.35;68.11;92979.72;5103603;28;20067;-79
2024/02/14 01:42:06;;;;;;;1.48;1.02;;;;;;;4.29;69.62;92978.84;5081625;28;20062;-79
2024/02/14 01:44:33;;;;;;;0.98;0.90;;;;;;;4.24;69.42;92980.59;5094368;28;20024;-79
2024/02/14 01:46:59;;;;;;;1.13;0.80;;;;;;;4.14;69.28;92976.81;5089449;28;20039;-79
2024/02/14 01:49:28;;;;;;;1.15;0.98;;;;;;;4.16;69.24;92981.72;5081614;28;20552;-80
2024/02/14 01:51:58;;;;;;;1.52;1.00;;;;;;;4.08;68.79;92967.38;5099111;28;20035;-80
2024/02/14 01:54:25;;;;;;;1.05;0.95;;;;;;;4.10;69.79;92987.88;5086277;28;20106;-79
2024/02/14 01:56:52;;;;;;;1.42;0.95;;;;;;;4.08;71.15;92987.31;5101910;28;20035;-80
2024/02/14 01:59:18;;;;;;;2.13;0.93;;;;;;;4.03;72.13;93000.97;5081016;28;20042;-80
2024/02/14 02:01:44;;;;;;;1.45;0.95;;;;;;;3.98;71.97;92993.09;5087139;28;20031;-78
2024/02/14 02:04:10;;;;;;;0.98;0.90;;;;;;;3.93;72.72;92986.00;5092916;28;20070;-80
2024/02/14 02:06:36;;;;;;;1.67;1.10;;;;;;;3.93;72.89;92990.41;5079984;28;20020;-80
2024/02/14 02:09:02;;;;;;;0.90;0.90;;;;;;;3.92;73.25;93000.00;5101608;28;20544;-80
2024/02/14 02:11:27;;;;;;;2.10;1.20;;;;;;;3.89;72.44;93003.03;5100855;28;20024;-79
2024/02/14 02:13:53;;;;;;;1.65;1.15;;;;;;;3.90;72.01;92998.66;5075346;28;20193;-79
2024/02/14 02:16:19;;;;;;;2.22;1.35;;;;;;;3.83;72.68;92990.22;5096871;28;20407;-78
2024/02/14 02:18:45;;;;;;;1.30;1.00;;;;;;;3.83;71.73;92998.00;5085869;28;20047;-78
2024/02/14 02:21:12;;;;;;;1.27;0.93;;;;;;;3.78;71.92;92988.31;5091917;28;20035;-78
2024/02/14 02:23:41;;;;;;;1.92;1.20;;;;;;;3.68;72.58;92983.75;5091915;28;20043;-78
2024/02/14 02:26:06;;;;;;;2.47;1.45;;;;;;;3.70;72.82;92986.91;5100286;28;20534;-77
2024/02/14 02:28:32;;;;;;;2.05;1.30;;;;;;;3.66;73.00;92982.44;5078538;28;20032;-79
2024/02/14 02:30:58;;;;;;;1.88;1.23;;;;;;;3.67;73.12;92986.56;5109636;28;20035;-78
2024/02/14 02:33:23;;;;;;;1.45;1.00;;;;;;;3.64;72.83;92982.66;5101756;28;20047;-78
2024/02/14 02:35:50;;;;;;;1.25;1.10;;;;;;;3.60;72.96;92983.34;5105006;28;20028;-78
2024/02/14 02:38:21;;;;;;;1.67;1.00;;;;;;;3.56;72.89;92980.44;5101557;28;20098;-78
2024/02/14 02:40:47;;;;;;;1.13;0.90;;;;;;;3.52;72.06;92974.94;5093283;28;20093;-78
2024/02/14 02:43:12;;;;;;;1.08;0.90;;;;;;;3.47;72.02;92974.06;5089928;28;20036;-77
2024/02/14 02:45:38;;;;;;;1.05;0.90;;;;;;;3.43;71.19;92971.13;5101098;28;20579;-79
2024/02/14 02:48:04;;;;;;;1.17;0.82;;;;;;;3.40;71.22;92981.94;5071865;28;20388;-80
2024/02/14 02:50:30;;;;;;;1.25;1.00;;;;;;;3.34;72.47;92975.88;5059584;28;20032;-80
2024/02/14 02:52:56;;;;;;;1.42;1.00;;;;;;;3.30;72.80;92982.53;5104543;28;20031;-80
2024/02/14 02:55:23;;;;;;;1.27;1.00;;;;;;;3.23;73.58;92971.53;5104496;28;20034;-79
2024/02/14 02:57:49;;;;;;;1.10;1.00;;;;;;;3.23;73.85;92987.03;5077919;28;20032;-80
2024/02/14 03:00:15;;;;;;;1.33;0.93;;;;;;;3.19;74.98;92979.97;5104020;28;20039;-80
2024/02/14 03:02:44;;;;;;;2.80;0.90;;;;;;;3.18;75.74;92991.34;5078066;28;20034;-80
2024/02/14 03:05:23;;;;;;;1.10;0.88;;;;;;;3.14;75.91;92980.66;5105043;28;20344;-80
2024/02/14 03:07:49;;;;;;;2.53;1.10;;;;;;;3.05;75.54;92982.81;5103288;28;20024;-80
2024/02/14 03:10:17;;;;;;;1.10;1.00;;;;;;;3.01;75.25;92984.25;5093268;28;20027;-80
2024/02/14 03:12:48;;;;;;;1.33;1.10;;;;;;;2.99;74.98;92985.50;5090525;28;20059;-79
2024/02/14 03:15:14;;;;;;;1.65;1.17;;;;;;;3.02;74.88;92988.44;5101812;28;20024;-79
2024/02/14 03:17:40;;;;;;;1.15;1.00;;;;;;;2.99;74.20;92991.47;5102052;28;20248;-80
2024/02/14 03:20:16;;;;;;;1.17;1.02;;;;;;;2.97;75.27;92988.31;5078376;28;20495;-80
2024/02/14 03:22:44;;;;;;;1.67;1.15;;;;;;;3.00;75.96;92995.63;5080288;28;20040;-80
2024/02/14 03:25:20;;;;;;;2.53;1.25;;;;;;;2.98;78.48;92995.06;5104465;28;20126;-79
2024/02/14 03:27:49;;;;;;;1.52;1.20;;;;;;;2.89;79.44;92991.25;5107889;28;20070;-78
2024/02/14 03:30:16;;;;;;;3.20;1.40;;;;;;;2.97;81.59;92993.47;5102145;28;20016;-79
2024/02/14 03:32:45;;;;;;;1.45;1.10;;;;;;;2.95;80.59;92985.19;5101146;28;20052;-80
2024/02/14 03:35:13;;;;;;;2.28;1.20;;;;;;;2.97;81.25;92992.69;5076047;28;20028;-79
2024/02/14 03:37:41;;;;;;;2.33;1.10;;;;;;;2.94;81.78;92990.59;5106138;28;20077;-80
2024/02/14 03:40:07;;;;;;;2.25;1.20;;;;;;;2.93;84.02;93002.72;5102161;28;20020;-79
2024/02/14 03:42:34;;;;;;;2.10;1.35;;;;;;;2.90;83.44;92992.81;5110716;28;20064;-79
2024/02/14 03:45:05;;;;;;;1.88;1.23;;;;;;;2.87;84.81;92990.69;5067182;28;20402;-79
2024/02/14 03:47:35;;;;;;;1.88;1.20;;;;;;;2.84;84.69;92991.16;5106881;28;20027;-80
2024/02/14 03:50:01;;;;;;;2.13;1.40;;;;;;;2.84;85.42;92988.56;5102498;28;20024;-78
2024/02/14 03:52:27;;;;;;;2.67;1.20;;;;;;;2.79;85.30;92997.00;5103374;28;20047;-81
2024/02/14 03:54:53;;;;;;;2.70;1.30;;;;;;;2.75;86.02;93002.81;5086792;28;20024;-80
2024/02/14 03:57:18;;;;;;;2.20;1.30;;;;;;;2.70;86.17;93004.31;5108849;28;20040;-78
2024/02/14 03:59:44;;;;;;;1.40;1.00;;;;;;;2.65;85.52;93008.56;5082224;28;20056;-78
2024/02/14 04:02:10;;;;;;;2.22;1.25;;;;;;;2.67;87.03;93009.91;5086955;28;20622;-80
2024/02/14 04:04:42;;;;;;;1.88;1.20;;;;;;;2.66;85.46;93008.34;5104325;28;20437;-81
2024/02/14 04:07:08;;;;;;;1.83;1.23;;;;;;;2.67;86.20;93015.09;5092388;28;20277;-79
2024/02/14 04:09:34;;;;;;;2.38;1.45;;;;;;;2.68;87.20;93021.84;5080939;28;20047;-80
2024/02/14 04:12:00;;;;;;;2.50;1.52;;;;;;;2.68;90.18;93027.00;5085580;28;20028;-79
2024/02/14 04:14:26;;;;;;;2.85;1.60;;;;;;;2.68;89.13;93027.00;5106546;28;20522;-79
2024/02/14 04:16:52;;;;;;;3.58;1.50;;;;;;;2.69;89.53;93028.56;5082150;28;20047;-78
2024/02/14 04:19:17;;;;;;;2.05;1.40;;;;;;;2.68;89.95;93029.59;5104641;28;20039;-78
2024/02/14 04:21:44;;;;;;;3.63;1.80;;;;;;;2.66;90.11;93029.03;5103770;28;20544;-79
2024/02/14 04:24:10;;;;;;;2.40;1.40;;;;;;;2.67;90.47;93029.81;5104764;28;20110;-79
2024/02/14 04:26:35;;;;;;;3.03;1.60;;;;;;;2.66;90.61;93033.41;5091501;28;20122;-78
2024/02/14 04:29:02;;;;;;;3.50;1.67;;;;;;;2.66;92.33;93036.78;5111341;28;20028;-78
2024/02/14 04:31:29;;;;;;;3.20;1.60;;;;;;;2.66;92.85;93036.78;5092831;28;20047;-79
2024/02/14 04:33:55;;;;;;;4.43;2.03;;;;;;;2.65;93.75;93042.94;5109018;28;20046;-78
2024/02/14 04:36:24;;;;;;;2.53;1.35;;;;;;;2.58;93.51;93029.34;5101059;28;20530;-78
2024/02/14 04:38:50;;;;;;;2.72;1.60;;;;;;;2.56;92.75;93036.53;5101489;28;20372;-79
2024/02/14 04:41:16;;;;;;;2.30;1.40;;;;;;;2.60;92.48;93039.47;5099560;28;20035;-79
2024/02/14 04:43:42;;;;;;;3.97;1.50;;;;;;;2.58;93.41;93036.31;5104758;28;20546;-77
2024/02/14 04:46:08;;;;;;;1.75;1.20;;;;;;;2.52;94.14;93027.66;5075438;28;20032;-77
2024/02/14 04:48:35;;;;;;;2.50;1.48;;;;;;;2.54;94.22;93040.34;5100656;28;20035;-78
2024/02/14 04:51:01;;;;;;;3.50;1.40;;;;;;;2.52;95.79;93032.03;5114528;28;20066;-78
2024/02/14 04:53:27;;;;;;;1.98;1.30;;;;;;;2.51;94.64;93036.44;5090738;28;20067;-78
2024/02/14 04:55:53;;;;;;;3.35;1.60;;;;;;;2.51;93.88;93026.09;5088577;28;20517;-79
2024/02/14 04:58:19;;;;;;;2.90;1.40;;;;;;;2.50;92.66;93034.88;5093828;28;20062;-78
2024/02/14 05:00:45;;;;;;;2.88;1.40;;;;;;;2.51;92.12;93036.44;5117277;28;20063;-79
2024/02/14 05:03:10;;;;;;;1.58;1.10;;;;;;;2.47;90.94;93024.97;5104694;28;20035;-78
2024/02/14 05:05:36;;;;;;;1.52;1.17;;;;;;;2.51;89.94;93026.09;5084360;28;20044;-78
2024/02/14 05:08:02;;;;;;;2.08;1.40;;;;;;;2.49;90.26;93023.72;5105946;28;20031;-77
2024/02/14 05:10:28;;;;;;;8.23;1.52;;;;;;;2.49;91.18;93030.69;5105486;28;20035;-79
2024/02/14 05:12:54;;;;;;;4.70;1.52;;;;;;;2.46;90.77;93016.41;5121669;28;20047;-77
2024/02/14 05:15:20;;;;;;;2.90;1.20;;;;;;;2.43;90.39;93022.03;5118744;28;20031;-78
2024/02/14 05:17:46;;;;;;;2.90;1.40;;;;;;;2.45;89.62;93022.59;5103230;28;20119;-77
2024/02/14 05:20:11;;;;;;;1.63;1.20;;;;;;;2.48;90.01;93026.53;5111252;28;20036;-78
2024/02/14 05:22:38;;;;;;;2.50;1.30;;;;;;;2.46;91.09;93029.34;5093120;28;20072;-78
2024/02/14 05:25:04;;;;;;;3.03;1.45;;;;;;;2.48;89.94;93031.72;5122391;28;20050;-79
2024/02/14 05:27:31;;;;;;;1.75;1.27;;;;;;;2.44;88.88;93028.00;5109089;28;20063;-79
2024/02/14 05:29:57;;;;;;;1.60;1.08;;;;;;;2.42;87.56;93030.78;5101482;28;20522;-79
2024/02/14 05:32:23;;;;;;;1.70;1.00;;;;;;;2.40;86.92;93032.03;5094190;28;20052;-80
2024/02/14 05:34:50;;;;;;;2.50;1.20;;;;;;;2.37;86.71;93029.91;5099575;28;20031;-78
2024/02/14 05:37:16;;;;;;;1.73;1.08;;;;;;;2.37;86.60;93030.69;5092036;28;20039;-79
2024/02/14 05:39:41;;;;;;;2.08;1.20;;;;;;;2.35;86.58;93030.13;5107722;28;20036;-78
2024/02/14 05:42:07;;;;;;;2.17;1.20;;;;;;;2.37;86.36;93037.66;5083454;28;20436;-79
2024/02/14 05:44:32;;;;;;;2.60;1.40;;;;;;;2.32;86.06;93038.31;5109765;28;20514;-79
2024/02/14 05:46:58;;;;;;;1.90;1.10;;;;;;;2.34;86.71;93036.28;5110799;28;20031;-78
2024/02/14 05:49:24;;;;;;;2.40;1.08;;;;;;;2.33;86.27;93039.09;5107631;28;20024;-80
2024/02/14 05:51:52;;;;;;;1.45;1.00;;;;;;;2.34;86.05;93041.44;5102513;28;20081;-79
2024/02/14 05:54:18;;;;;;;1.65;1.20;;;;;;;2.34;85.79;93036.28;5106941;28;20082;-79
2024/02/14 05:56:43;;;;;;;1.42;1.05;;;;;;;2.34;85.13;93045.81;5107291;28;20027;-80
2024/02/14 05:59:09;;;;;;;1.17;1.00;;;;;;;2.28;84.58;93042.34;5106724;28;20040;-80
2024/02/14 06:01:35;;;;;;;1.60;1.10;;;;;;;2.32;84.32;93047.84;5081063;28;20131;-76
2024/02/14 06:04:01;;;;;;;1.73;1.20;;;;;;;1.90;83.80;92984.06;5096693;28;20055;-79
2024/02/14 06:06:26;;;;;;;2.03;1.20;;;;;;;2.30;84.01;93045.50;5111358;28;20028;-78
2024/02/14 06:08:57;;;;;;;1.25;1.00;;;;;;;2.28;84.59;93045.72;5111278;28;20074;-78
2024/02/14 06:11:25;;;;;;;1.92;1.10;;;;;;;2.32;84.22;93063.34;5075782;28;20070;-78
2024/02/14 06:13:51;;;;;;;3.40;0.85;;;;;;;2.31;83.39;93057.41;5112754;28;20030;-79
2024/02/14 06:16:16;;;;;;;1.95;0.98;;;;;;;2.26;82.77;93060.66;5093892;28;20402;-78
2024/02/14 06:18:42;;;;;;;1.23;1.10;;;;;;;2.29;82.77;93069.75;5111953;28;20031;-79
2024/02/14 06:21:08;;;;;;;1.50;1.13;;;;;;;2.22;82.03;93069.84;5112056;28;20517;-79
2024/02/14 06:23:34;;;;;;;1.45;1.00;;;;;;;2.21;81.58;93070.84;5111623;28;20024;-79
2024/02/14 06:25:59;;;;;;;1.30;0.90;;;;;;;2.25;81.35;93074.59;5097578;28;20116;-78
2024/02/14 06:28:25;;;;;;;1.17;1.05;;;;;;;2.27;81.48;93076.91;5116159;28;20153;-78
2024/02/14 06:30:50;;;;;;;1.48;1.00;;;;;;;2.26;82.71;93081.31;5116132;28;20046;-79
2024/02/14 06:33:16;;;;;;;1.55;1.00;;;;;;;2.30;83.43;93084.25;5114829;28;20059;-79
2024/02/14 06:35:42;;;;;;;1.02;0.93;;;;;;;2.31;82.46;93088.41;5097288;28;20032;-78
2024/02/14 06:38:07;;;;;;;1.40;1.00;;;;;;;2.32;81.56;93097.75;5115180;28;20035;-79
2024/02/14 06:40:33;;;;;;;1.83;1.20;;;;;;;2.37;81.31;93102.25;5096406;28;20126;-79
2024/02/14 06:43:02;;;;;;;3.00;1.20;;;;;;;2.78;81.11;93113.56;5096167;28;20024;-79
2024/02/14 06:45:28;;;;;;;2.33;1.17;;;;;;;3.56;78.73;93120.25;5094535;28;20028;-79
2024/02/14 06:47:54;;;;;;;1.67;1.08;;;;;;;4.45;76.10;93113.91;5093350;28;20024;-79
2024/02/14 06:50:20;;;;;;;2.33;1.20;;;;;;;5.34;72.51;93119.22;5058878;28;20127;-78
2024/02/14 06:52:45;;;;;;;2.20;1.20;;;;;;;6.28;66.82;93117.53;5095213;28;20034;-79
2024/02/14 06:55:11;;;;;;;1.70;1.20;;;;;;;7.25;61.17;93115.03;5069513;28;20069;-76
2024/02/14 06:57:37;;;;;;;2.17;1.20;;;;;;;7.98;57.65;93102.16;5104396;28;20077;-80
2024/02/14 07:00:05;;;;;;;1.70;1.20;;;;;;;8.67;55.38;93111.53;5094411;28;20032;-81
2024/02/14 07:02:31;;;;;;;1.15;1.00;;;;;;;9.36;52.25;93114.69;5099270;28;20027;-80
2024/02/14 07:04:57;;;;;;;1.83;1.10;;;;;;;10.21;50.21;93117.38;5107189;28;20036;-80
2024/02/14 07:07:22;;;;;;;2.80;1.05;;;;;;;11.01;45.98;93116.44;5100304;28;20228;-80
2024/02/14 07:09:48;;;;;;;1.90;1.23;;;;;;;11.41;42.48;93106.69;5087260;28;20019;-80
2024/02/14 07:12:13;;;;;;;4.40;1.30;;;;;;;12.00;42.86;93117.97;5083184;28;20106;-80
2024/02/14 07:14:39;;;;;;;2.50;1.17;;;;;;;12.67;38.23;93127.69;5115646;28;20040;-80
2024/02/14 07:17:05;;;;;;;4.28;1.10;;;;;;;13.12;38.81;93126.25;5116346;28;20032;-81
2024/02/14 07:19:30;;;;;;;2.53;1.10;;;;;;;13.73;38.09;93129.00;5076794;28;20024;-79
2024/02/14 07:21:56;;;;;;;1.77;1.20;;;;;;;14.34;35.17;93117.38;5109042;28;20028;-76
2024/02/14 07:24:22;;;;;;;1.13;1.02;;;;;;;14.94;34.44;93126.19;5097374;28;20035;-78
2024/02/14 07:26:47;;;;;;;1.73;1.10;;;;;;;15.20;33.56;93119.28;5095121;28;20380;-79
2024/02/14 07:29:13;;;;;;;1.80;1.00;;;;;;;15.85;33.53;93127.00;5105713;28;20046;-77
2024/02/14 07:31:38;;;;;;;1.90;1.10;;;;;;;16.13;31.30;93130.25;5101813;28;20328;-79
2024/02/14 07:34:05;;;;;;;1.60;1.00;;;;;;;16.07;32.20;93139.38;5108537;28;20036;-77
2024/02/14 07:36:31;;;;;;;1.67;0.95;;;;;;;17.16;30.96;93136.91;5076242;28;20035;-78
2024/02/14 07:38:57;;;;;;;2.28;1.08;;;;;;;17.33;31.10;93132.69;5115697;28;20041;-77
2024/02/14 07:41:23;;;;;;;3.65;1.00;;;;;;;16.52;30.55;93133.94;5106837;28;20102;-78
2024/02/14 07:43:48;;;;;;;1.42;0.98;;;;;;;16.47;30.70;93134.09;5091332;28;20024;-78
2024/02/14 07:46:22;;;;;;;1.20;1.00;;;;;;;16.85;30.56;93142.31;5099988;28;20082;-77
2024/02/14 07:48:48;;;;;;;1.35;0.95;;;;;;;16.53;30.51;93135.53;5116281;28;20170;-76
2024/02/14 07:51:14;;;;;;;1.63;0.90;;;;;;;16.77;30.24;93135.09;5088047;28;20046;-77
2024/02/14 07:53:39;;;;;;;1.48;0.90;;;;;;;16.99;30.32;93136.88;5114111;28;20029;-78
2024/02/14 07:56:05;;;;;;;1.17;1.08;;;;;;;17.16;30.50;93144.84;5106163;28;20052;-77
2024/02/14 07:58:31;;;;;;;1.85;1.33;;;;;;;16.42;33.07;93140.31;5094194;28;20035;-77
2024/02/14 08:00:56;;;;;;;1.65;1.10;;;;;;;16.20;33.57;93134.00;5107295;28;20502;-78
2024/02/14 08:03:22;;;;;;;2.88;1.77;;;;;;;16.58;32.47;93151.22;5096599;28;20038;-77
2024/02/14 08:05:48;;;;;;;1.92;1.00;;;;;;;16.48;33.15;93146.22;5087393;28;20095;-78
2024/02/14 08:08:13;;;;;;;2.78;1.20;;;;;;;17.02;31.47;93150.28;5085795;28;20332;-78
2024/02/14 08:10:39;;;;;;;1.55;1.08;;;;;;;16.40;30.95;93143.25;5096858;28;20039;-78
2024/02/14 08:13:04;;;;;;;2.13;1.08;;;;;;;15.59;31.64;93159.28;5082803;28;20031;-79
2024/02/14 08:15:30;;;;;;;2.55;1.00;;;;;;;16.94;30.49;93150.25;5098840;28;20111;-79
2024/02/14 08:17:56;;;;;;;1.42;1.10;;;;;;;16.35;31.39;93150.53;5088569;28;20567;-78
2024/02/14 08:20:23;;;;;;;2.38;1.23;;;;;;;16.69;30.76;93157.78;5108932;28;20039;-78
2024/02/14 08:22:50;;;;;;;1.40;1.00;;;;;;;16.05;29.36;93144.19;5087404;28;20058;-78
2024/02/14 08:25:16;;;;;;;1.83;1.10;;;;;;;16.29;29.71;93139.31;5086880;28;20020;-80
2024/02/14 08:27:41;;;;;;;1.20;1.00;;;;;;;16.08;30.85;93144.38;5114445;28;20042;-78
2024/02/14 08:30:08;;;;;;;1.85;1.10;;;;;;;15.96;30.54;93149.41;5109641;28;20039;-77
2024/02/14 08:32:34;;;;;;;2.67;1.08;;;;;;;14.66;31.45;93149.97;5101074;28;20074;-78
2024/02/14 08:35:01;;;;;;;0.90;0.90;;;;;;;14.66;32.17;93142.06;5111548;28;20063;-78
2024/02/14 08:37:27;;;;;;;1.50;0.98;;;;;;;14.35;33.13;93147.91;5105224;28;20039;-79
2024/02/14 08:39:52;;;;;;;1.48;1.10;;;;;;;14.07;33.45;93143.69;5102921;28;20024;-79
2024/02/14 08:42:18;;;;;;;1.58;1.10;;;;;;;14.34;32.40;93137.66;5115222;28;20039;-79
2024/02/14 08:44:44;;;;;;;1.08;0.98;;;;;;;14.63;33.34;93141.84;5103532;28;20059;-78
2024/02/14 08:47:10;;;;;;;2.25;1.40;;;;;;;14.35;34.57;93132.09;5111910;28;20047;-78
2024/02/14 08:49:36;;;;;;;3.13;1.40;;;;;;;15.21;32.74;93149.06;5104537;28;20415;-79
2024/02/14 08:52:02;;;;;;;2.53;1.40;;;;;;;15.40;32.05;93140.97;5115596;28;20042;-80
2024/02/14 08:54:28;;;;;;;1.27;1.00;;;;;;;15.24;32.18;93140.53;5067240;28;20494;-80
2024/02/14 08:56:55;;;;;;;3.05;1.20;;;;;;;14.51;34.20;93144.97;5071485;28;20031;-79
2024/02/14 08:59:21;;;;;;;1.45;1.00;;;;;;;14.58;33.08;93142.75;5083422;28;20050;-78
2024/02/14 09:01:48;;;;;;;3.90;1.10;;;;;;;14.33;33.41;93147.41;5108940;28;20039;-77
2024/02/14 09:04:13;;;;;;;4.28;1.33;;;;;;;13.82;33.39;93143.06;5099503;28;20038;-79
2024/02/14 09:06:40;;;;;;;2.33;1.30;;;;;;;14.82;33.26;93153.06;5101051;28;20028;-78
2024/02/14 09:09:07;;;;;;;2.42;1.30;;;;;;;14.81;33.44;93148.09;5086984;28;20028;-76
2024/02/14 09:11:32;;;;;;;2.17;1.40;;;;;;;15.17;32.49;93154.13;5104492;28;20095;-79
2024/02/14 09:14:04;;;;;;;1.88;1.17;;;;;;;15.60;32.34;93156.34;5071714;28;20028;-79
2024/02/14 09:16:31;;;;;;;1.95;1.20;;;;;;;15.26;30.86;93148.16;5073172;28;20036;-76
2024/02/14 09:18:57;;;;;;;3.55;1.30;;;;;;;14.45;31.89;93146.13;5106922;28;20031;-79
2024/02/14 09:21:23;;;;;;;1.27;1.08;;;;;;;14.14;32.75;93158.03;5087267;28;20036;-77
2024/02/14 09:23:49;;;;;;;1.77;1.05;;;;;;;14.32;32.41;93161.66;5093192;28;20042;-77
2024/02/14 09:26:16;;;;;;;3.53;1.30;;;;;;;13.72;31.45;93167.69;5117020;28;20038;-79
2024/02/14 09:28:42;;;;;;;2.17;1.25;;;;;;;13.88;33.50;93159.56;5108729;28;20090;-77
2024/02/14 09:31:11;;;;;;;2.08;1.30;;;;;;;14.02;33.17;93154.31;5111818;28;20066;-79
2024/02/14 09:33:37;;;;;;;4.15;1.30;;;;;;;13.40;34.55;93152.69;5098163;28;20079;-79
2024/02/14 09:36:04;;;;;;;2.83;1.40;;;;;;;13.23;34.49;93155.03;5084519;28;20043;-78
2024/02/14 09:38:30;;;;;;;2.08;1.30;;;;;;;13.06;35.76;93156.31;5086444;28;20044;-78
2024/02/14 09:41:12;;;;;;;2.08;1.35;;;;;;;12.83;33.55;93151.91;5095684;28;20047;-78
2024/02/14 09:43:40;;;;;;;2.75;1.33;;;;;;;12.37;36.57;93150.63;5088259;28;20036;-78
2024/02/14 09:46:07;;;;;;;3.00;1.20;;;;;;;11.61;33.78;93155.56;5078401;28;20082;-77
2024/02/14 09:48:34;;;;;;;1.00;0.90;;;;;;;11.71;32.88;93154.69;5083088;28;20063;-79
2024/02/14 09:50:59;;;;;;;1.33;0.90;;;;;;;12.19;31.31;93159.25;5085436;28;20176;-78
2024/02/14 09:53:28;;;;;;;1.48;1.00;;;;;;;12.22;32.90;93164.69;5087861;28;20052;-79
2024/02/14 09:55:54;;;;;;;2.05;1.17;;;;;;;12.39;34.15;93163.50;5092429;28;20452;-78
2024/02/14 09:58:21;;;;;;;1.55;1.13;;;;;;;12.81;32.77;93161.91;5090220;28;20407;-78
2024/02/14 10:00:46;;;;;;;1.20;1.08;;;;;;;12.92;32.93;93165.97;5092171;28;20148;-78
2024/02/14 10:03:12;;;;;;;3.67;1.20;;;;;;;13.21;33.91;93167.69;5092702;28;20111;-78
2024/02/14 10:05:38;;;;;;;2.97;1.40;;;;;;;13.30;34.43;93160.72;5081418;28;20020;-78
2024/02/14 10:08:04;;;;;;;1.63;1.23;;;;;;;13.64;35.61;93159.69;5087325;28;20044;-77
2024/02/14 10:10:32;;;;;;;3.22;1.20;;;;;;;13.69;32.97;93164.84;5092205;28;20028;-79
2024/02/14 10:12:58;;;;;;;2.47;1.40;;;;;;;13.51;34.30;93162.00;5090324;28;20199;-79
2024/02/14 10:15:23;;;;;;;2.00;1.20;;;;;;;13.49;34.11;93164.13;5092713;28;20265;-77
2024/02/14 10:17:49;;;;;;;1.80;1.17;;;;;;;14.21;35.06;93162.13;5092603;28;20124;-79
2024/02/14 10:20:18;;;;;;;2.33;1.15;;;;;;;14.11;33.05;93163.09;5084352;28;20028;-79
2024/02/14 10:22:44;;;;;;;2.03;1.20;;;;;;;14.06;34.19;93160.56;5089435;28;20520;-79
2024/02/14 10:25:10;;;;;;;1.85;1.30;;;;;;;13.79;34.32;93161.28;5094668;28;20032;-80
2024/02/14 10:27:39;;;;;;;5.18;1.48;;;;;;;13.76;35.31;93157.38;5087149;28;20226;-79
2024/02/14 10:30:09;;;;;;;4.22;1.30;;;;;;;13.78;34.57;93157.88;5083071;28;20018;-82
2024/02/14 10:32:36;;;;;;;1.92;1.20;;;;;;;13.37;35.24;93166.41;5095098;28;20422;-78
2024/02/14 10:35:08;;;;;;;5.88;1.60;;;;;;;13.08;36.18;93161.28;5113036;28;20024;-81
2024/02/14 10:37:36;;;;;;;2.20;1.15;;;;;;;13.23;35.97;93170.81;5111398;28;20036;-79
2024/02/14 10:40:03;;;;;;;1.73;1.13;;;;;;;13.55;34.71;93175.34;5090265;28;20043;-79
2024/02/14 10:42:29;;;;;;;1.17;1.00;;;;;;;13.79;33.71;93171.81;5101869;28;20044;-79
2024/02/14 10:44:55;;;;;;;2.97;1.48;;;;;;;14.02;34.76;93170.09;5112917;28;20053;-84
2024/02/14 10:47:29;;;;;;;1.73;1.15;;;;;;;14.32;32.26;93163.50;5095273;28;20118;-80
2024/02/14 10:50:02;;;;;;;3.65;1.30;;;;;;;14.59;33.26;93157.50;5095128;28;20043;-79
2024/02/14 10:52:35;;;;;;;1.70;1.05;;;;;;;14.11;34.95;93171.00;5090971;28;20462;-78
2024/02/14 10:55:05;;;;;;;2.20;1.25;;;;;;;14.24;33.96;93162.31;5091630;28;20366;-78
2024/02/14 10:57:32;;;;;;;1.30;1.00;;;;;;;14.36;31.52;93175.81;5102971;28;20083;-77
2024/02/14 11:00:01;;;;;;;4.70;1.20;;;;;;;14.66;31.69;93168.41;5095730;28;20360;-79
2024/02/14 11:02:30;;;;;;;1.60;0.80;;;;;;;14.74;28.84;93172.97;5108569;28;20065;-77
2024/02/14 11:05:00;;;;;;;2.53;1.30;;;;;;;14.37;30.03;93168.69;5116217;28;20023;-78
2024/02/14 11:07:29;;;;;;;2.08;1.27;;;;;;;14.69;29.16;93170.44;5100340;28;20031;-78
2024/02/14 11:10:07;;;;;;;1.92;1.10;;;;;;;14.99;31.77;93166.41;5090995;28;20523;-79
2024/02/14 11:12:38;;;;;;;1.65;1.20;;;;;;;14.67;34.92;93153.38;5108912;28;20028;-80
2024/02/14 11:15:25;;;;;;;2.97;1.38;;;;;;;14.63;33.63;93160.31;5092218;28;20036;-78
2024/02/14 11:17:52;;;;;;;2.22;1.30;;;;;;;13.77;35.37;93164.19;5111295;28;20052;-78
2024/02/14 11:20:31;;;;;;;2.67;1.50;;;;;;;13.45;35.66;93171.03;5103113;28;20094;-78
2024/02/14 11:23:00;;;;;;;1.40;1.17;;;;;;;12.98;36.56;93169.31;5101192;28;20066;-78
2024/02/14 11:25:31;;;;;;;1.67;1.00;;;;;;;13.06;37.00;93166.03;5082549;28;20035;-79
2024/02/14 11:27:58;;;;;;;2.53;1.42;;;;;;;13.35;38.76;93152.75;5088828;28;20408;-78
2024/02/14 11:30:31;;;;;;;3.47;1.33;;;;;;;13.27;38.34;93162.06;5108136;28;20099;-78
2024/02/14 11:33:20;;;;;;;2.17;1.30;;;;;;;13.00;38.08;93154.81;5098984;28;20044;-79
2024/02/14 11:35:49;;;;;;;1.42;1.10;;;;;;;13.25;36.71;93161.56;5104765;28;20445;-80
2024/02/14 11:38:14;;;;;;;3.05;1.40;;;;;;;13.30;38.35;93152.84;5084547;28;20388;-78